Station Historical Data
Daily Summary for March 18, 2017 Units:  Both    English   Metric
« Previous Day
Next Day »
Daily Weekly Monthly Yearly Custom
  High: Low: Average:
Temperature: 38.8 °F /  3.8 °C 29.4 °F /  -1.4 °C 33.8 °F /  1 °C
Dew Point: 33.9 °F /  1.1 °C 16.9 °F /  -8.4 °C 27.9 °F /  -2.3 °C
Humidity: 92% 57% 80%
Wind Speed: 6.0mph /  9.7km/h - 1.5mph /  2.4km/h
Wind Gust: 8.0mph /  12.9km/h - -
Wind- - ENE
Pressure: 30.15 in /  1020.9 hPa 29.99 in /  1015.5 hPa -
Precipitation: 0.00 in /  0 mm    
Historical Graphs
 
 
Tabular Data for March 18, 2017
Time Temperature Dew Point Pressure Wind Wind Speed Wind Gust Humidity Rainfall Rate (Hourly)
00:04 30.3 °F /  -0.9 °C 17.3 °F /  -8.2 °C 30.13in /  1020.2hPa ENE 1.0mph /  1.6km/h 3.0mph /  4.8km/h 58% 0.00in /  0mm
00:09 30.3 °F /  -0.9 °C 17.3 °F /  -8.2 °C 30.13in /  1020.2hPa ENE 1.0mph /  1.6km/h 4.0mph /  6.4km/h 58% 0.00in /  0mm
00:14 29.9 °F /  -1.2 °C 16.9 °F /  -8.4 °C 30.14in /  1020.5hPa ENE 1.0mph /  1.6km/h 4.0mph /  6.4km/h 58% 0.00in /  0mm
00:19 29.8 °F /  -1.2 °C 17.2 °F /  -8.2 °C 30.13in /  1020.2hPa Calm   2.0mph /  3.2km/h 59% 0.00in /  0mm
00:24 29.8 °F /  -1.2 °C 17.2 °F /  -8.2 °C 30.13in /  1020.2hPa ENE 1.0mph /  1.6km/h 2.0mph /  3.2km/h 59% 0.00in /  0mm
00:29 29.7 °F /  -1.3 °C 17.1 °F /  -8.3 °C 30.13in /  1020.2hPa Calm   2.0mph /  3.2km/h 59% 0.00in /  0mm
00:34 29.6 °F /  -1.3 °C 17.0 °F /  -8.3 °C 30.13in /  1020.2hPa ENE 1.0mph /  1.6km/h 3.0mph /  4.8km/h 59% 0.00in /  0mm
00:39 29.5 °F /  -1.4 °C 16.9 °F /  -8.4 °C 30.13in /  1020.2hPa ENE 1.0mph /  1.6km/h 3.0mph /  4.8km/h 59% 0.00in /  0mm
00:44 29.6 °F /  -1.3 °C 17.4 °F /  -8.1 °C 30.12in /  1019.9hPa Calm   3.0mph /  4.8km/h 60% 0.00in /  0mm
00:49 29.6 °F /  -1.3 °C 17.0 °F /  -8.3 °C 30.12in /  1019.9hPa ENE 1.0mph /  1.6km/h 3.0mph /  4.8km/h 59% 0.00in /  0mm
00:54 29.5 °F /  -1.4 °C 16.9 °F /  -8.4 °C 30.12in /  1019.9hPa ENE 3.0mph /  4.8km/h 3.0mph /  4.8km/h 59% 0.00in /  0mm
00:59 29.7 °F /  -1.3 °C 17.1 °F /  -8.3 °C 30.12in /  1019.9hPa ENE 1.0mph /  1.6km/h 3.0mph /  4.8km/h 59% 0.00in /  0mm
01:04 29.7 °F /  -1.3 °C 17.1 °F /  -8.3 °C 30.12in /  1019.9hPa ENE 1.0mph /  1.6km/h 3.0mph /  4.8km/h 59% 0.00in /  0mm
01:09 29.7 °F /  -1.3 °C 17.1 °F /  -8.3 °C 30.11in /  1019.5hPa ENE 1.0mph /  1.6km/h 3.0mph /  4.8km/h 59% 0.00in /  0mm
01:14 29.6 °F /  -1.3 °C 17.4 °F /  -8.1 °C 30.12in /  1019.9hPa East 1.0mph /  1.6km/h 3.0mph /  4.8km/h 60% 0.00in /  0mm
01:19 29.5 °F /  -1.4 °C 17.3 °F /  -8.2 °C 30.11in /  1019.5hPa East 1.0mph /  1.6km/h 3.0mph /  4.8km/h 60% 0.00in /  0mm
01:24 29.4 °F /  -1.4 °C 17.2 °F /  -8.2 °C 30.11in /  1019.5hPa East 1.0mph /  1.6km/h 5.0mph /  8km/h 60% 0.00in /  0mm
01:29 29.6 °F /  -1.3 °C 17.8 °F /  -7.9 °C 30.11in /  1019.5hPa East 2.0mph /  3.2km/h 5.0mph /  8km/h 61% 0.00in /  0mm
01:34 29.7 °F /  -1.3 °C 17.9 °F /  -7.8 °C 30.10in /  1019.2hPa ENE 2.0mph /  3.2km/h 6.0mph /  9.7km/h 61% 0.00in /  0mm
01:39 29.6 °F /  -1.3 °C 17.8 °F /  -7.9 °C 30.10in /  1019.2hPa East 3.0mph /  4.8km/h 5.0mph /  8km/h 61% 0.00in /  0mm
01:44 29.7 °F /  -1.3 °C 17.9 °F /  -7.8 °C 30.10in /  1019.2hPa East 3.0mph /  4.8km/h 7.0mph /  11.3km/h 61% 0.00in /  0mm
01:49 29.9 °F /  -1.2 °C 18.1 °F /  -7.7 °C 30.10in /  1019.2hPa Calm   5.0mph /  8km/h 61% 0.00in /  0mm
01:54 29.9 °F /  -1.2 °C 18.1 °F /  -7.7 °C 30.10in /  1019.2hPa SE 1.0mph /  1.6km/h 6.0mph /  9.7km/h 61% 0.00in /  0mm
01:59 30.0 °F /  -1.1 °C 18.5 °F /  -7.5 °C 30.10in /  1019.2hPa Calm   3.0mph /  4.8km/h 62% 0.00in /  0mm
02:04 30.1 °F /  -1.1 °C 18.6 °F /  -7.4 °C 30.10in /  1019.2hPa Calm   3.0mph /  4.8km/h 62% 0.00in /  0mm
02:09 30.2 °F /  -1 °C 18.7 °F /  -7.4 °C 30.10in /  1019.2hPa East 1.0mph /  1.6km/h 3.0mph /  4.8km/h 62% 0.00in /  0mm
02:14 30.3 °F /  -0.9 °C 18.8 °F /  -7.3 °C 30.10in /  1019.2hPa Calm   1.0mph /  1.6km/h 62% 0.00in /  0mm
02:19 30.4 °F /  -0.9 °C 18.9 °F /  -7.3 °C 30.10in /  1019.2hPa East 1.0mph /  1.6km/h 3.0mph /  4.8km/h 62% 0.00in /  0mm
02:24 30.5 °F /  -0.8 °C 18.6 °F /  -7.4 °C 30.09in /  1018.8hPa East 1.0mph /  1.6km/h 5.0mph /  8km/h 61% 0.00in /  0mm
02:29 30.5 °F /  -0.8 °C 19.0 °F /  -7.2 °C 30.09in /  1018.8hPa East 2.0mph /  3.2km/h 5.0mph /  8km/h 62% 0.00in /  0mm
02:34 30.5 °F /  -0.8 °C 18.6 °F /  -7.4 °C 30.09in /  1018.8hPa East 2.0mph /  3.2km/h 5.0mph /  8km/h 61% 0.00in /  0mm
02:39 30.6 °F /  -0.8 °C 19.1 °F /  -7.2 °C 30.08in /  1018.5hPa ENE 2.0mph /  3.2km/h 4.0mph /  6.4km/h 62% 0.00in /  0mm
02:44 30.6 °F /  -0.8 °C 19.1 °F /  -7.2 °C 30.08in /  1018.5hPa ENE 2.0mph /  3.2km/h 5.0mph /  8km/h 62% 0.00in /  0mm
02:49 30.7 °F /  -0.7 °C 19.2 °F /  -7.1 °C 30.08in /  1018.5hPa Calm   5.0mph /  8km/h 62% 0.00in /  0mm
02:54 30.8 °F /  -0.7 °C 18.9 °F /  -7.3 °C 30.07in /  1018.2hPa East 2.0mph /  3.2km/h 6.0mph /  9.7km/h 61% 0.00in /  0mm
02:59 30.9 °F /  -0.6 °C 19.0 °F /  -7.2 °C 30.07in /  1018.2hPa Calm   3.0mph /  4.8km/h 61% 0.00in /  0mm
03:04 31.0 °F /  -0.6 °C 19.1 °F /  -7.2 °C 30.07in /  1018.2hPa East 1.0mph /  1.6km/h 3.0mph /  4.8km/h 61% 0.00in /  0mm
03:09 31.1 °F /  -0.5 °C 19.2 °F /  -7.1 °C 30.07in /  1018.2hPa ENE 1.0mph /  1.6km/h 5.0mph /  8km/h 61% 0.00in /  0mm
03:14 31.3 °F /  -0.4 °C 19.0 °F /  -7.2 °C 30.07in /  1018.2hPa ENE 1.0mph /  1.6km/h 5.0mph /  8km/h 60% 0.00in /  0mm
03:19 31.4 °F /  -0.3 °C 19.1 °F /  -7.2 °C 30.07in /  1018.2hPa ENE 2.0mph /  3.2km/h 4.0mph /  6.4km/h 60% 0.00in /  0mm
03:24 31.5 °F /  -0.3 °C 19.2 °F /  -7.1 °C 30.07in /  1018.2hPa ENE 2.0mph /  3.2km/h 4.0mph /  6.4km/h 60% 0.00in /  0mm
03:29 31.5 °F /  -0.3 °C 19.2 °F /  -7.1 °C 30.07in /  1018.2hPa East 2.0mph /  3.2km/h 5.0mph /  8km/h 60% 0.00in /  0mm
03:34 31.5 °F /  -0.3 °C 19.2 °F /  -7.1 °C 30.06in /  1017.8hPa East 1.0mph /  1.6km/h 5.0mph /  8km/h 60% 0.00in /  0mm
03:39 31.6 °F /  -0.2 °C 19.3 °F /  -7.1 °C 30.06in /  1017.8hPa Calm   1.0mph /  1.6km/h 60% 0.00in /  0mm
03:44 31.5 °F /  -0.3 °C 19.2 °F /  -7.1 °C 30.06in /  1017.8hPa Calm     60% 0.00in /  0mm
03:49 31.7 °F /  -0.2 °C 19.4 °F /  -7 °C 30.06in /  1017.8hPa Calm   2.0mph /  3.2km/h 60% 0.00in /  0mm
03:54 31.8 °F /  -0.1 °C 19.5 °F /  -6.9 °C 30.05in /  1017.5hPa East 1.0mph /  1.6km/h 2.0mph /  3.2km/h 60% 0.00in /  0mm
03:59 31.9 °F /  -0.1 °C 19.6 °F /  -6.9 °C 30.05in /  1017.5hPa Calm   2.0mph /  3.2km/h 60% 0.00in /  0mm
04:04 32.1 °F /  0.1 °C 19.4 °F /  -7 °C 30.05in /  1017.5hPa ENE 2.0mph /  3.2km/h 3.0mph /  4.8km/h 59% 0.00in /  0mm
04:09 32.2 °F /  0.1 °C 19.5 °F /  -6.9 °C 30.04in /  1017.2hPa ENE 2.0mph /  3.2km/h 3.0mph /  4.8km/h 59% 0.00in /  0mm
04:14 32.4 °F /  0.2 °C 19.3 °F /  -7.1 °C 30.04in /  1017.2hPa ENE 2.0mph /  3.2km/h 7.0mph /  11.3km/h 58% 0.00in /  0mm
04:19 32.6 °F /  0.3 °C 19.4 °F /  -7 °C 30.04in /  1017.2hPa East 2.0mph /  3.2km/h 7.0mph /  11.3km/h 58% 0.00in /  0mm
04:24 32.8 °F /  0.4 °C 19.6 °F /  -6.9 °C 30.03in /  1016.8hPa East 2.0mph /  3.2km/h 7.0mph /  11.3km/h 58% 0.00in /  0mm
04:29 33.0 °F /  0.6 °C 19.8 °F /  -6.8 °C 30.03in /  1016.8hPa East 2.0mph /  3.2km/h 7.0mph /  11.3km/h 58% 0.00in /  0mm
04:34 33.0 °F /  0.6 °C 19.4 °F /  -7 °C 30.03in /  1016.8hPa East 3.0mph /  4.8km/h 6.0mph /  9.7km/h 57% 0.00in /  0mm
04:39 33.1 °F /  0.6 °C 19.5 °F /  -6.9 °C 30.03in /  1016.8hPa ESE 2.0mph /  3.2km/h 7.0mph /  11.3km/h 57% 0.00in /  0mm
04:44 33.2 °F /  0.7 °C 19.6 °F /  -6.9 °C 30.03in /  1016.8hPa East 6.0mph /  9.7km/h 7.0mph /  11.3km/h 57% 0.00in /  0mm
04:49 33.0 °F /  0.6 °C 19.8 °F /  -6.8 °C 30.03in /  1016.8hPa East 2.0mph /  3.2km/h 7.0mph /  11.3km/h 58% 0.00in /  0mm
04:54 33.0 °F /  0.6 °C 19.4 °F /  -7 °C 30.03in /  1016.8hPa East 2.0mph /  3.2km/h 6.0mph /  9.7km/h 57% 0.00in /  0mm
04:59 33.0 °F /  0.6 °C 19.8 °F /  -6.8 °C 30.02in /  1016.5hPa East 2.0mph /  3.2km/h 5.0mph /  8km/h 58% 0.00in /  0mm
05:04 33.0 °F /  0.6 °C 19.8 °F /  -6.8 °C 30.03in /  1016.8hPa East 1.0mph /  1.6km/h 3.0mph /  4.8km/h 58% 0.00in /  0mm
05:09 33.0 °F /  0.6 °C 19.8 °F /  -6.8 °C 30.03in /  1016.8hPa East 1.0mph /  1.6km/h 2.0mph /  3.2km/h 58% 0.00in /  0mm
05:14 33.0 °F /  0.6 °C 19.8 °F /  -6.8 °C 30.03in /  1016.8hPa East 2.0mph /  3.2km/h 5.0mph /  8km/h 58% 0.00in /  0mm
05:19 33.2 °F /  0.7 °C 19.6 °F /  -6.9 °C 30.03in /  1016.8hPa East 1.0mph /  1.6km/h 5.0mph /  8km/h 57% 0.00in /  0mm
05:24 33.2 °F /  0.7 °C 19.6 °F /  -6.9 °C 30.04in /  1017.2hPa East 1.0mph /  1.6km/h 5.0mph /  8km/h 57% 0.00in /  0mm
05:29 33.1 °F /  0.6 °C 19.9 °F /  -6.7 °C 30.04in /  1017.2hPa Calm   3.0mph /  4.8km/h 58% 0.00in /  0mm
05:34 33.1 °F /  0.6 °C 19.9 °F /  -6.7 °C 30.04in /  1017.2hPa SE 1.0mph /  1.6km/h 3.0mph /  4.8km/h 58% 0.00in /  0mm
05:39 33.2 °F /  0.7 °C 20.0 °F /  -6.7 °C 30.04in /  1017.2hPa East 1.0mph /  1.6km/h 3.0mph /  4.8km/h 58% 0.00in /  0mm
05:44 33.1 °F /  0.6 °C 19.9 °F /  -6.7 °C 30.04in /  1017.2hPa ESE 1.0mph /  1.6km/h 5.0mph /  8km/h 58% 0.00in /  0mm
05:49 33.1 °F /  0.6 °C 19.9 °F /  -6.7 °C 30.04in /  1017.2hPa ESE 1.0mph /  1.6km/h 2.0mph /  3.2km/h 58% 0.00in /  0mm
05:54 33.0 °F /  0.6 °C 19.8 °F /  -6.8 °C 30.04in /  1017.2hPa ESE 1.0mph /  1.6km/h 3.0mph /  4.8km/h 58% 0.00in /  0mm
05:59 33.0 °F /  0.6 °C 19.4 °F /  -7 °C 30.04in /  1017.2hPa East 1.0mph /  1.6km/h 5.0mph /  8km/h 57% 0.00in /  0mm
06:04 32.9 °F /  0.5 °C 19.7 °F /  -6.8 °C 30.04in /  1017.2hPa East 2.0mph /  3.2km/h 5.0mph /  8km/h 58% 0.00in /  0mm
06:09 32.8 °F /  0.4 °C 20.0 °F /  -6.7 °C 30.03in /  1016.8hPa ENE 2.0mph /  3.2km/h 5.0mph /  8km/h 59% 0.00in /  0mm
06:14 32.8 °F /  0.4 °C 20.0 °F /  -6.7 °C 30.03in /  1016.8hPa ENE 2.0mph /  3.2km/h 5.0mph /  8km/h 59% 0.00in /  0mm
06:19 32.6 °F /  0.3 °C 19.8 °F /  -6.8 °C 30.03in /  1016.8hPa East 1.0mph /  1.6km/h 3.0mph /  4.8km/h 59% 0.00in /  0mm
06:24 32.6 °F /  0.3 °C 20.2 °F /  -6.6 °C 30.03in /  1016.8hPa East 2.0mph /  3.2km/h 5.0mph /  8km/h 60% 0.00in /  0mm
06:29 32.4 °F /  0.2 °C 20.4 °F /  -6.4 °C 30.02in /  1016.5hPa East 2.0mph /  3.2km/h 5.0mph /  8km/h 61% 0.00in /  0mm
06:34 32.4 °F /  0.2 °C 20.4 °F /  -6.4 °C 30.02in /  1016.5hPa East 1.0mph /  1.6km/h 3.0mph /  4.8km/h 61% 0.00in /  0mm
06:39 32.4 °F /  0.2 °C 20.4 °F /  -6.4 °C 30.02in /  1016.5hPa East 1.0mph /  1.6km/h 3.0mph /  4.8km/h 61% 0.00in /  0mm
06:44 32.5 °F /  0.3 °C 20.5 °F /  -6.4 °C 30.02in /  1016.5hPa ESE 1.0mph /  1.6km/h 3.0mph /  4.8km/h 61% 0.00in /  0mm
06:49 32.5 °F /  0.3 °C 20.9 °F /  -6.2 °C 30.02in /  1016.5hPa ENE 2.0mph /  3.2km/h 3.0mph /  4.8km/h 62% 0.00in /  0mm
06:54 32.6 °F /  0.3 °C 21.4 °F /  -5.9 °C 30.02in /  1016.5hPa SE 1.0mph /  1.6km/h 3.0mph /  4.8km/h 63% 0.00in /  0mm
06:59 32.7 °F /  0.4 °C 21.5 °F /  -5.8 °C 30.03in /  1016.8hPa ESE 1.0mph /  1.6km/h 3.0mph /  4.8km/h 63% 0.00in /  0mm
07:04 33.0 °F /  0.6 °C 22.5 °F /  -5.3 °C 30.03in /  1016.8hPa SSE 1.0mph /  1.6km/h 4.0mph /  6.4km/h 65% 0.00in /  0mm
07:09 33.4 °F /  0.8 °C 24.7 °F /  -4.1 °C 30.03in /  1016.8hPa South 4.0mph /  6.4km/h 7.0mph /  11.3km/h 70% 0.00in /  0mm
07:14 33.8 °F /  1 °C 26.4 °F /  -3.1 °C 30.03in /  1016.8hPa South 3.0mph /  4.8km/h 7.0mph /  11.3km/h 74% 0.00in /  0mm
07:19 33.5 °F /  0.8 °C 27.1 °F /  -2.7 °C 30.03in /  1016.8hPa SSE 2.0mph /  3.2km/h 5.0mph /  8km/h 77% 0.00in /  0mm
07:24 33.2 °F /  0.7 °C 27.4 °F /  -2.6 °C 30.03in /  1016.8hPa SSE 1.0mph /  1.6km/h 5.0mph /  8km/h 79% 0.00in /  0mm
07:29 32.5 °F /  0.3 °C 27.0 °F /  -2.8 °C 30.03in /  1016.8hPa SSE 2.0mph /  3.2km/h 5.0mph /  8km/h 80% 0.00in /  0mm
07:34 32.0 °F /  0 °C 26.8 °F /  -2.9 °C 30.03in /  1016.8hPa SSE 1.0mph /  1.6km/h 3.0mph /  4.8km/h 81% 0.00in /  0mm
07:39 31.7 °F /  -0.2 °C 27.1 °F /  -2.7 °C 30.04in /  1017.2hPa SE 1.0mph /  1.6km/h 3.0mph /  4.8km/h 83% 0.00in /  0mm
07:44 31.7 °F /  -0.2 °C 27.4 °F /  -2.6 °C 30.03in /  1016.8hPa ESE 1.0mph /  1.6km/h 2.0mph /  3.2km/h 84% 0.00in /  0mm
07:49 31.4 °F /  -0.3 °C 27.4 °F /  -2.6 °C 30.03in /  1016.8hPa Calm   3.0mph /  4.8km/h 85% 0.00in /  0mm
07:54 31.1 °F /  -0.5 °C 27.1 °F /  -2.7 °C 30.03in /  1016.8hPa Calm   2.0mph /  3.2km/h 85% 0.00in /  0mm
07:59 30.8 °F /  -0.7 °C 27.1 °F /  -2.7 °C 30.03in /  1016.8hPa Calm   2.0mph /  3.2km/h 86% 0.00in /  0mm
08:04 30.5 °F /  -0.8 °C 27.1 °F /  -2.7 °C 30.03in /  1016.8hPa Calm   2.0mph /  3.2km/h 87% 0.00in /  0mm
08:09 30.5 °F /  -0.8 °C 27.1 °F /  -2.7 °C 30.03in /  1016.8hPa Calm   2.0mph /  3.2km/h 87% 0.00in /  0mm
08:14 30.5 °F /  -0.8 °C 27.4 °F /  -2.6 °C 30.03in /  1016.8hPa East 1.0mph /  1.6km/h 2.0mph /  3.2km/h 88% 0.00in /  0mm
08:19 30.4 °F /  -0.9 °C 27.3 °F /  -2.6 °C 30.03in /  1016.8hPa Calm   2.0mph /  3.2km/h 88% 0.00in /  0mm
08:24 30.4 °F /  -0.9 °C 27.3 °F /  -2.6 °C 30.03in /  1016.8hPa Calm   2.0mph /  3.2km/h 88% 0.00in /  0mm
08:29 30.3 °F /  -0.9 °C 27.2 °F /  -2.7 °C 30.03in /  1016.8hPa East 1.0mph /  1.6km/h 3.0mph /  4.8km/h 88% 0.00in /  0mm
08:34 30.2 °F /  -1 °C 27.3 °F /  -2.6 °C 30.03in /  1016.8hPa NE 2.0mph /  3.2km/h 3.0mph /  4.8km/h 89% 0.00in /  0mm
08:39 30.1 °F /  -1.1 °C 27.3 °F /  -2.6 °C 30.03in /  1016.8hPa ENE 1.0mph /  1.6km/h 3.0mph /  4.8km/h 89% 0.00in /  0mm
08:44 30.1 °F /  -1.1 °C 27.3 °F /  -2.6 °C 30.03in /  1016.8hPa NE 1.0mph /  1.6km/h 3.0mph /  4.8km/h 89% 0.00in /  0mm
08:49 30.2 °F /  -1 °C 27.3 °F /  -2.6 °C 30.03in /  1016.8hPa NE 1.0mph /  1.6km/h 2.0mph /  3.2km/h 89% 0.00in /  0mm
08:54 30.4 °F /  -0.9 °C 27.8 °F /  -2.3 °C 30.03in /  1016.8hPa NE 1.0mph /  1.6km/h 3.0mph /  4.8km/h 90% 0.00in /  0mm
08:59 30.6 °F /  -0.8 °C 28.0 °F /  -2.2 °C 30.03in /  1016.8hPa Calm   3.0mph /  4.8km/h 90% 0.00in /  0mm
09:04 30.9 °F /  -0.6 °C 28.3 °F /  -2.1 °C 30.03in /  1016.8hPa Calm     90% 0.00in /  0mm
09:09 31.0 °F /  -0.6 °C 28.4 °F /  -2 °C 30.03in /  1016.8hPa Calm     90% 0.00in /  0mm
09:14 31.2 °F /  -0.4 °C 28.6 °F /  -1.9 °C 30.03in /  1016.8hPa Calm     90% 0.00in /  0mm
09:19 31.6 °F /  -0.2 °C 29.0 °F /  -1.7 °C 30.02in /  1016.5hPa Calm     90% 0.00in /  0mm
09:24 31.7 °F /  -0.2 °C 29.1 °F /  -1.6 °C 30.02in /  1016.5hPa NE 1.0mph /  1.6km/h 4.0mph /  6.4km/h 90% 0.00in /  0mm
09:29 31.8 °F /  -0.1 °C 29.2 °F /  -1.6 °C 30.02in /  1016.5hPa NE 2.0mph /  3.2km/h 4.0mph /  6.4km/h 90% 0.00in /  0mm
09:34 31.7 °F /  -0.2 °C 29.1 °F /  -1.6 °C 30.02in /  1016.5hPa NE 3.0mph /  4.8km/h 4.0mph /  6.4km/h 90% 0.00in /  0mm
09:39 31.8 °F /  -0.1 °C 29.2 °F /  -1.6 °C 30.02in /  1016.5hPa NE 2.0mph /  3.2km/h 4.0mph /  6.4km/h 90% 0.00in /  0mm
09:44 32.0 °F /  0 °C 29.4 °F /  -1.4 °C 30.02in /  1016.5hPa ENE 2.0mph /  3.2km/h 4.0mph /  6.4km/h 90% 0.00in /  0mm
09:49 32.1 °F /  0.1 °C 29.5 °F /  -1.4 °C 30.03in /  1016.8hPa ENE 2.0mph /  3.2km/h 6.0mph /  9.7km/h 90% 0.00in /  0mm
09:54 32.2 °F /  0.1 °C 29.6 °F /  -1.3 °C 30.02in /  1016.5hPa ENE 2.0mph /  3.2km/h 6.0mph /  9.7km/h 90% 0.00in /  0mm
09:59 32.3 °F /  0.2 °C 29.7 °F /  -1.3 °C 30.02in /  1016.5hPa ENE 2.0mph /  3.2km/h 5.0mph /  8km/h 90% 0.00in /  0mm
10:04 32.4 °F /  0.2 °C 29.8 °F /  -1.2 °C 30.03in /  1016.8hPa NE 2.0mph /  3.2km/h 3.0mph /  4.8km/h 90% 0.00in /  0mm
10:09 32.4 °F /  0.2 °C 29.8 °F /  -1.2 °C 30.03in /  1016.8hPa NE 5.0mph /  8km/h 5.0mph /  8km/h 90% 0.00in /  0mm
10:14 32.5 °F /  0.3 °C 29.9 °F /  -1.2 °C 30.02in /  1016.5hPa ENE 2.0mph /  3.2km/h 6.0mph /  9.7km/h 90% 0.00in /  0mm
10:19 32.6 °F /  0.3 °C 30.0 °F /  -1.1 °C 30.02in /  1016.5hPa ENE 2.0mph /  3.2km/h 4.0mph /  6.4km/h 90% 0.00in /  0mm
10:24 32.7 °F /  0.4 °C 30.1 °F /  -1.1 °C 30.03in /  1016.8hPa ENE 2.0mph /  3.2km/h 4.0mph /  6.4km/h 90% 0.00in /  0mm
10:29 33.0 °F /  0.6 °C 30.4 °F /  -0.9 °C 30.02in /  1016.5hPa ENE 3.0mph /  4.8km/h 6.0mph /  9.7km/h 90% 0.00in /  0mm
10:34 33.1 °F /  0.6 °C 30.5 °F /  -0.8 °C 30.02in /  1016.5hPa NE 2.0mph /  3.2km/h 5.0mph /  8km/h 90% 0.00in /  0mm
10:39 33.2 °F /  0.7 °C 30.6 °F /  -0.8 °C 30.02in /  1016.5hPa ENE 1.0mph /  1.6km/h 5.0mph /  8km/h 90% 0.00in /  0mm
10:44 33.3 °F /  0.7 °C 30.4 °F /  -0.9 °C 30.02in /  1016.5hPa ENE 3.0mph /  4.8km/h 5.0mph /  8km/h 89% 0.00in /  0mm
10:49 33.4 °F /  0.8 °C 30.5 °F /  -0.8 °C 30.02in /  1016.5hPa ENE 3.0mph /  4.8km/h 5.0mph /  8km/h 89% 0.00in /  0mm
10:54 33.6 °F /  0.9 °C 30.7 °F /  -0.7 °C 30.02in /  1016.5hPa ENE 2.0mph /  3.2km/h 5.0mph /  8km/h 89% 0.00in /  0mm
10:59 33.9 °F /  1.1 °C 31.0 °F /  -0.6 °C 30.02in /  1016.5hPa East 2.0mph /  3.2km/h 5.0mph /  8km/h 89% 0.00in /  0mm
11:04 34.2 °F /  1.2 °C 31.0 °F /  -0.6 °C 30.02in /  1016.5hPa NE 3.0mph /  4.8km/h 6.0mph /  9.7km/h 88% 0.00in /  0mm
11:09 34.4 °F /  1.3 °C 31.2 °F /  -0.4 °C 30.02in /  1016.5hPa East 5.0mph /  8km/h 5.0mph /  8km/h 88% 0.00in /  0mm
11:14 34.7 °F /  1.5 °C 31.5 °F /  -0.3 °C 30.02in /  1016.5hPa East 2.0mph /  3.2km/h 5.0mph /  8km/h 88% 0.00in /  0mm
11:19 34.7 °F /  1.5 °C 31.2 °F /  -0.4 °C 30.02in /  1016.5hPa East 2.0mph /  3.2km/h 5.0mph /  8km/h 87% 0.00in /  0mm
11:24 34.5 °F /  1.4 °C 31.0 °F /  -0.6 °C 30.02in /  1016.5hPa East 3.0mph /  4.8km/h 8.0mph /  12.9km/h 87% 0.00in /  0mm
11:29 34.5 °F /  1.4 °C 31.0 °F /  -0.6 °C 30.02in /  1016.5hPa East 2.0mph /  3.2km/h 8.0mph /  12.9km/h 87% 0.00in /  0mm
11:34 34.6 °F /  1.4 °C 31.1 °F /  -0.5 °C 30.02in /  1016.5hPa East 3.0mph /  4.8km/h 5.0mph /  8km/h 87% 0.00in /  0mm
11:39 34.6 °F /  1.4 °C 31.4 °F /  -0.3 °C 30.02in /  1016.5hPa ENE 1.0mph /  1.6km/h 5.0mph /  8km/h 88% 0.00in /  0mm
11:44 34.8 °F /  1.6 °C 31.6 °F /  -0.2 °C 30.01in /  1016.1hPa NE 1.0mph /  1.6km/h 4.0mph /  6.4km/h 88% 0.02in /  0.51mm
11:49 34.8 °F /  1.6 °C 31.3 °F /  -0.4 °C 30.01in /  1016.1hPa East 2.0mph /  3.2km/h 6.0mph /  9.7km/h 87% 0.03in /  0.76mm
11:54 34.9 °F /  1.6 °C 31.4 °F /  -0.3 °C 30.01in /  1016.1hPa ENE 2.0mph /  3.2km/h 4.0mph /  6.4km/h 87% 0.03in /  0.76mm
11:59 34.9 °F /  1.6 °C 31.7 °F /  -0.2 °C 30.01in /  1016.1hPa Calm   5.0mph /  8km/h 88% 0.04in /  1.02mm
12:04 35.0 °F /  1.7 °C 31.8 °F /  -0.1 °C 30.01in /  1016.1hPa East 2.0mph /  3.2km/h 6.0mph /  9.7km/h 88% 0.05in /  1.27mm
12:09 35.1 °F /  1.7 °C 31.9 °F /  -0.1 °C 30.01in /  1016.1hPa East 1.0mph /  1.6km/h 5.0mph /  8km/h 88% 0.05in /  1.27mm
12:14 35.2 °F /  1.8 °C 32.0 °F /  0 °C 30.01in /  1016.1hPa East 2.0mph /  3.2km/h 6.0mph /  9.7km/h 88% 0.06in /  1.52mm
12:19 35.2 °F /  1.8 °C 32.0 °F /  0 °C 30.01in /  1016.1hPa East 2.0mph /  3.2km/h 6.0mph /  9.7km/h 88% 0.06in /  1.52mm
12:24 35.4 °F /  1.9 °C 32.2 °F /  0.1 °C 30.01in /  1016.1hPa East 1.0mph /  1.6km/h 5.0mph /  8km/h 88% 0.07in /  1.78mm
12:29 35.5 °F /  1.9 °C 32.3 °F /  0.2 °C 30.01in /  1016.1hPa East 1.0mph /  1.6km/h 4.0mph /  6.4km/h 88% 0.07in /  1.78mm
12:34 35.6 °F /  2 °C 32.4 °F /  0.2 °C 30.01in /  1016.1hPa East 2.0mph /  3.2km/h 5.0mph /  8km/h 88% 0.07in /  1.78mm
12:39 35.5 °F /  1.9 °C 32.3 °F /  0.2 °C 30.01in /  1016.1hPa East 2.0mph /  3.2km/h 5.0mph /  8km/h 88% 0.08in /  2.03mm
12:44 35.8 °F /  2.1 °C 32.6 °F /  0.3 °C 30.01in /  1016.1hPa ESE 1.0mph /  1.6km/h 4.0mph /  6.4km/h 88% 0.06in /  1.52mm
12:49 36.1 °F /  2.3 °C 32.9 °F /  0.5 °C 30.01in /  1016.1hPa Calm   4.0mph /  6.4km/h 88% 0.06in /  1.52mm
12:54 36.4 °F /  2.4 °C 33.2 °F /  0.7 °C 30.01in /  1016.1hPa East 3.0mph /  4.8km/h 5.0mph /  8km/h 88% 0.06in /  1.52mm
12:59 36.6 °F /  2.6 °C 33.1 °F /  0.6 °C 30.01in /  1016.1hPa East 2.0mph /  3.2km/h 6.0mph /  9.7km/h 87% 0.05in /  1.27mm
13:04 36.9 °F /  2.7 °C 33.1 °F /  0.6 °C 30.01in /  1016.1hPa ENE 1.0mph /  1.6km/h 5.0mph /  8km/h 86% 0.05in /  1.27mm
13:09 37.0 °F /  2.8 °C 33.2 °F /  0.7 °C 30.01in /  1016.1hPa ENE 2.0mph /  3.2km/h 3.0mph /  4.8km/h 86% 0.05in /  1.27mm
13:14 37.3 °F /  2.9 °C 33.5 °F /  0.8 °C 30.01in /  1016.1hPa East 2.0mph /  3.2km/h 3.0mph /  4.8km/h 86% 0.05in /  1.27mm
13:19 37.5 °F /  3.1 °C 33.4 °F /  0.8 °C 30.01in /  1016.1hPa East 1.0mph /  1.6km/h 5.0mph /  8km/h 85% 0.05in /  1.27mm
13:24 37.5 °F /  3.1 °C 33.4 °F /  0.8 °C 30.01in /  1016.1hPa ENE 1.0mph /  1.6km/h 5.0mph /  8km/h 85% 0.04in /  1.02mm
13:29 37.7 °F /  3.2 °C 33.6 °F /  0.9 °C 30.00in /  1015.8hPa ENE 1.0mph /  1.6km/h 5.0mph /  8km/h 85% 0.04in /  1.02mm
13:34 37.8 °F /  3.2 °C 33.4 °F /  0.8 °C 30.00in /  1015.8hPa ENE 1.0mph /  1.6km/h 5.0mph /  8km/h 84% 0.04in /  1.02mm
13:39 37.8 °F /  3.2 °C 33.4 °F /  0.8 °C 30.00in /  1015.8hPa ENE 2.0mph /  3.2km/h 5.0mph /  8km/h 84% 0.03in /  0.76mm
13:44 37.8 °F /  3.2 °C 33.4 °F /  0.8 °C 30.00in /  1015.8hPa East 1.0mph /  1.6km/h 3.0mph /  4.8km/h 84% 0.03in /  0.76mm
13:49 37.9 °F /  3.3 °C 33.5 °F /  0.8 °C 30.00in /  1015.8hPa East 1.0mph /  1.6km/h 4.0mph /  6.4km/h 84% 0.02in /  0.51mm
13:54 38.2 °F /  3.4 °C 33.5 °F /  0.8 °C 30.00in /  1015.8hPa ENE 1.0mph /  1.6km/h 3.0mph /  4.8km/h 83% 0.02in /  0.51mm
13:59 38.4 °F /  3.6 °C 33.7 °F /  0.9 °C 30.00in /  1015.8hPa NE 1.0mph /  1.6km/h 4.0mph /  6.4km/h 83% 0.02in /  0.51mm
14:04 38.5 °F /  3.6 °C 33.8 °F /  1 °C 30.00in /  1015.8hPa Calm   5.0mph /  8km/h 83% 0.01in /  0.25mm
14:09 38.6 °F /  3.7 °C 33.6 °F /  0.9 °C 30.00in /  1015.8hPa NE 1.0mph /  1.6km/h 3.0mph /  4.8km/h 82% 0.01in /  0.25mm
14:14 38.8 °F /  3.8 °C 33.8 °F /  1 °C 30.00in /  1015.8hPa ENE 1.0mph /  1.6km/h 5.0mph /  8km/h 82% 0.00in /  0mm
14:19 38.8 °F /  3.8 °C 33.8 °F /  1 °C 29.99in /  1015.5hPa ENE 2.0mph /  3.2km/h 4.0mph /  6.4km/h 82% 0.00in /  0mm
14:24 38.8 °F /  3.8 °C 33.8 °F /  1 °C 30.00in /  1015.8hPa ENE 1.0mph /  1.6km/h 3.0mph /  4.8km/h 82% 0.00in /  0mm
14:29 38.6 °F /  3.7 °C 33.6 °F /  0.9 °C 30.00in /  1015.8hPa ENE 1.0mph /  1.6km/h 4.0mph /  6.4km/h 82% 0.00in /  0mm
14:34 38.7 °F /  3.7 °C 33.7 °F /  0.9 °C 30.00in /  1015.8hPa NE 2.0mph /  3.2km/h 4.0mph /  6.4km/h 82% 0.00in /  0mm
14:39 38.6 °F /  3.7 °C 33.6 °F /  0.9 °C 30.00in /  1015.8hPa NE 2.0mph /  3.2km/h 5.0mph /  8km/h 82% 0.00in /  0mm
14:44 38.5 °F /  3.6 °C 33.5 °F /  0.8 °C 30.00in /  1015.8hPa NE 2.0mph /  3.2km/h 5.0mph /  8km/h 82% 0.00in /  0mm
14:49 38.5 °F /  3.6 °C 33.8 °F /  1 °C 30.00in /  1015.8hPa NE 1.0mph /  1.6km/h 2.0mph /  3.2km/h 83% 0.00in /  0mm
14:54 38.6 °F /  3.7 °C 33.6 °F /  0.9 °C 30.00in /  1015.8hPa NE 1.0mph /  1.6km/h 4.0mph /  6.4km/h 82% 0.00in /  0mm
14:59 38.6 °F /  3.7 °C 33.6 °F /  0.9 °C 30.00in /  1015.8hPa NE 1.0mph /  1.6km/h 3.0mph /  4.8km/h 82% 0.00in /  0mm
15:04 38.7 °F /  3.7 °C 33.7 °F /  0.9 °C 30.00in /  1015.8hPa NE 1.0mph /  1.6km/h 2.0mph /  3.2km/h 82% 0.00in /  0mm
15:09 38.6 °F /  3.7 °C 33.6 °F /  0.9 °C 30.00in /  1015.8hPa NE 2.0mph /  3.2km/h 3.0mph /  4.8km/h 82% 0.00in /  0mm
15:14 38.6 °F /  3.7 °C 33.9 °F /  1.1 °C 30.00in /  1015.8hPa NE 1.0mph /  1.6km/h 3.0mph /  4.8km/h 83% 0.00in /  0mm
15:19 38.5 °F /  3.6 °C 33.8 °F /  1 °C 30.00in /  1015.8hPa NE 2.0mph /  3.2km/h 4.0mph /  6.4km/h 83% 0.00in /  0mm
15:24 38.4 °F /  3.6 °C 33.7 °F /  0.9 °C 30.00in /  1015.8hPa NE 1.0mph /  1.6km/h 3.0mph /  4.8km/h 83% 0.00in /  0mm
15:29 38.3 °F /  3.5 °C 33.9 °F /  1.1 °C 30.00in /  1015.8hPa NE 1.0mph /  1.6km/h 3.0mph /  4.8km/h 84% 0.00in /  0mm
15:34 38.0 °F /  3.3 °C 33.6 °F /  0.9 °C 30.00in /  1015.8hPa NE 1.0mph /  1.6km/h 3.0mph /  4.8km/h 84% 0.00in /  0mm
15:39 37.9 °F /  3.3 °C 33.8 °F /  1 °C 30.00in /  1015.8hPa NE 2.0mph /  3.2km/h 3.0mph /  4.8km/h 85% 0.00in /  0mm
15:44 37.8 °F /  3.2 °C 33.7 °F /  0.9 °C 30.00in /  1015.8hPa NE 2.0mph /  3.2km/h 5.0mph /  8km/h 85% 0.00in /  0mm
15:49 37.7 °F /  3.2 °C 33.6 °F /  0.9 °C 30.00in /  1015.8hPa NE 4.0mph /  6.4km/h 4.0mph /  6.4km/h 85% 0.00in /  0mm
15:54 37.9 °F /  3.3 °C 33.8 °F /  1 °C 30.00in /  1015.8hPa NE 2.0mph /  3.2km/h 4.0mph /  6.4km/h 85% 0.00in /  0mm
15:59 37.9 °F /  3.3 °C 33.8 °F /  1 °C 30.00in /  1015.8hPa NE 1.0mph /  1.6km/h 3.0mph /  4.8km/h 85% 0.00in /  0mm
16:04 37.9 °F /  3.3 °C 33.8 °F /  1 °C 30.01in /  1016.1hPa ENE 2.0mph /  3.2km/h 4.0mph /  6.4km/h 85% 0.00in /  0mm
16:09 37.7 °F /  3.2 °C 33.6 °F /  0.9 °C 30.01in /  1016.1hPa NE 4.0mph /  6.4km/h 4.0mph /  6.4km/h 85% 0.00in /  0mm
16:14 37.7 °F /  3.2 °C 33.9 °F /  1.1 °C 30.01in /  1016.1hPa ENE 1.0mph /  1.6km/h 5.0mph /  8km/h 86% 0.00in /  0mm
16:19 37.7 °F /  3.2 °C 33.9 °F /  1.1 °C 30.01in /  1016.1hPa ENE 1.0mph /  1.6km/h 3.0mph /  4.8km/h 86% 0.00in /  0mm
16:24 37.6 °F /  3.1 °C 33.8 °F /  1 °C 30.01in /  1016.1hPa NE 3.0mph /  4.8km/h 5.0mph /  8km/h 86% 0.00in /  0mm
16:29 37.2 °F /  2.9 °C 33.4 °F /  0.8 °C 30.01in /  1016.1hPa NE 2.0mph /  3.2km/h 7.0mph /  11.3km/h 86% 0.00in /  0mm
16:34 37.0 °F /  2.8 °C 33.2 °F /  0.7 °C 30.01in /  1016.1hPa NE 3.0mph /  4.8km/h 7.0mph /  11.3km/h 86% 0.01in /  0.25mm
16:39 36.9 °F /  2.7 °C 33.4 °F /  0.8 °C 30.02in /  1016.5hPa NE 3.0mph /  4.8km/h 7.0mph /  11.3km/h 87% 0.01in /  0.25mm
16:44 36.8 °F /  2.7 °C 33.3 °F /  0.7 °C 30.02in /  1016.5hPa NE 3.0mph /  4.8km/h 5.0mph /  8km/h 87% 0.01in /  0.25mm
16:49 36.7 °F /  2.6 °C 33.2 °F /  0.7 °C 30.01in /  1016.1hPa NE 2.0mph /  3.2km/h 5.0mph /  8km/h 87% 0.01in /  0.25mm
16:54 36.6 °F /  2.6 °C 33.4 °F /  0.8 °C 30.01in /  1016.1hPa NE 2.0mph /  3.2km/h 4.0mph /  6.4km/h 88% 0.01in /  0.25mm
16:59 36.5 °F /  2.5 °C 33.3 °F /  0.7 °C 30.01in /  1016.1hPa NE 2.0mph /  3.2km/h 4.0mph /  6.4km/h 88% 0.01in /  0.25mm
17:04 36.4 °F /  2.4 °C 33.2 °F /  0.7 °C 30.02in /  1016.5hPa NE 2.0mph /  3.2km/h 4.0mph /  6.4km/h 88% 0.01in /  0.25mm
17:09 36.2 °F /  2.3 °C 33.0 °F /  0.6 °C 30.02in /  1016.5hPa NE 2.0mph /  3.2km/h 5.0mph /  8km/h 88% 0.02in /  0.51mm
17:14 36.1 °F /  2.3 °C 32.9 °F /  0.5 °C 30.02in /  1016.5hPa NNE 1.0mph /  1.6km/h 3.0mph /  4.8km/h 88% 0.02in /  0.51mm
17:19 36.0 °F /  2.2 °C 33.1 °F /  0.6 °C 30.02in /  1016.5hPa Calm   2.0mph /  3.2km/h 89% 0.02in /  0.51mm
17:24 36.0 °F /  2.2 °C 33.1 °F /  0.6 °C 30.02in /  1016.5hPa NE 2.0mph /  3.2km/h 5.0mph /  8km/h 89% 0.02in /  0.51mm
17:29 36.0 °F /  2.2 °C 33.1 °F /  0.6 °C 30.02in /  1016.5hPa ENE 2.0mph /  3.2km/h 5.0mph /  8km/h 89% 0.02in /  0.51mm
17:34 36.1 °F /  2.3 °C 33.2 °F /  0.7 °C 30.02in /  1016.5hPa NE 3.0mph /  4.8km/h 5.0mph /  8km/h 89% 0.01in /  0.25mm
17:39 36.1 °F /  2.3 °C 33.2 °F /  0.7 °C 30.02in /  1016.5hPa NE 3.0mph /  4.8km/h 5.0mph /  8km/h 89% 0.02in /  0.51mm
17:44 36.0 °F /  2.2 °C 33.1 °F /  0.6 °C 30.03in /  1016.8hPa NE 1.0mph /  1.6km/h 5.0mph /  8km/h 89% 0.02in /  0.51mm
17:49 36.0 °F /  2.2 °C 33.1 °F /  0.6 °C 30.03in /  1016.8hPa NE 1.0mph /  1.6km/h 5.0mph /  8km/h 89% 0.02in /  0.51mm
17:54 36.0 °F /  2.2 °C 33.1 °F /  0.6 °C 30.03in /  1016.8hPa NE 2.0mph /  3.2km/h 4.0mph /  6.4km/h 89% 0.02in /  0.51mm
17:59 35.9 °F /  2.2 °C 33.0 °F /  0.6 °C 30.03in /  1016.8hPa NE 2.0mph /  3.2km/h 4.0mph /  6.4km/h 89% 0.02in /  0.51mm
18:04 36.0 °F /  2.2 °C 33.1 °F /  0.6 °C 30.03in /  1016.8hPa NE 2.0mph /  3.2km/h 4.0mph /  6.4km/h 89% 0.02in /  0.51mm
18:09 35.9 °F /  2.2 °C 33.0 °F /  0.6 °C 30.04in /  1017.2hPa NE 2.0mph /  3.2km/h 4.0mph /  6.4km/h 89% 0.01in /  0.25mm
18:14 35.8 °F /  2.1 °C 32.9 °F /  0.5 °C 30.04in /  1017.2hPa NE 2.0mph /  3.2km/h 3.0mph /  4.8km/h 89% 0.01in /  0.25mm
18:19 35.8 °F /  2.1 °C 33.2 °F /  0.7 °C 30.04in /  1017.2hPa NE 2.0mph /  3.2km/h 3.0mph /  4.8km/h 90% 0.01in /  0.25mm
18:24 35.7 °F /  2.1 °C 33.1 °F /  0.6 °C 30.04in /  1017.2hPa NE 2.0mph /  3.2km/h 3.0mph /  4.8km/h 90% 0.01in /  0.25mm
18:29 35.7 °F /  2.1 °C 33.1 °F /  0.6 °C 30.04in /  1017.2hPa NE 2.0mph /  3.2km/h 3.0mph /  4.8km/h 90% 0.01in /  0.25mm
18:34 35.6 °F /  2 °C 33.0 °F /  0.6 °C 30.05in /  1017.5hPa NE 2.0mph /  3.2km/h 5.0mph /  8km/h 90% 0.02in /  0.51mm
18:39 35.6 °F /  2 °C 33.0 °F /  0.6 °C 30.05in /  1017.5hPa NE 2.0mph /  3.2km/h 4.0mph /  6.4km/h 90% 0.01in /  0.25mm
18:44 35.5 °F /  1.9 °C 32.9 °F /  0.5 °C 30.05in /  1017.5hPa NE 2.0mph /  3.2km/h 4.0mph /  6.4km/h 90% 0.01in /  0.25mm
18:49 35.5 °F /  1.9 °C 32.9 °F /  0.5 °C 30.05in /  1017.5hPa NE 2.0mph /  3.2km/h 3.0mph /  4.8km/h 90% 0.01in /  0.25mm
18:54 35.4 °F /  1.9 °C 32.8 °F /  0.4 °C 30.06in /  1017.8hPa NE 3.0mph /  4.8km/h 3.0mph /  4.8km/h 90% 0.01in /  0.25mm
18:59 35.4 °F /  1.9 °C 32.8 °F /  0.4 °C 30.06in /  1017.8hPa NE 2.0mph /  3.2km/h 4.0mph /  6.4km/h 90% 0.01in /  0.25mm
19:04 35.3 °F /  1.8 °C 32.7 °F /  0.4 °C 30.06in /  1017.8hPa NE 4.0mph /  6.4km/h 7.0mph /  11.3km/h 90% 0.01in /  0.25mm
19:09 35.2 °F /  1.8 °C 32.6 °F /  0.3 °C 30.06in /  1017.8hPa NE 2.0mph /  3.2km/h 7.0mph /  11.3km/h 90% 0.01in /  0.25mm
19:14 35.1 °F /  1.7 °C 32.5 °F /  0.3 °C 30.07in /  1018.2hPa NNE 2.0mph /  3.2km/h 4.0mph /  6.4km/h 90% 0.01in /  0.25mm
19:19 35.0 °F /  1.7 °C 32.4 °F /  0.2 °C 30.07in /  1018.2hPa NNE 2.0mph /  3.2km/h 4.0mph /  6.4km/h 90% 0.01in /  0.25mm
19:24 34.9 °F /  1.6 °C 32.5 °F /  0.3 °C 30.07in /  1018.2hPa NNE 2.0mph /  3.2km/h 4.0mph /  6.4km/h 91% 0.01in /  0.25mm
19:29 34.8 °F /  1.6 °C 32.4 °F /  0.2 °C 30.07in /  1018.2hPa NNE 2.0mph /  3.2km/h 4.0mph /  6.4km/h 91% 0.01in /  0.25mm
19:34 34.8 °F /  1.6 °C 32.4 °F /  0.2 °C 30.08in /  1018.5hPa NNE 2.0mph /  3.2km/h 4.0mph /  6.4km/h 91% 0.00in /  0mm
19:39 34.7 °F /  1.5 °C 32.3 °F /  0.2 °C 30.08in /  1018.5hPa NE 2.0mph /  3.2km/h 4.0mph /  6.4km/h 91% 0.00in /  0mm
19:44 34.6 °F /  1.4 °C 32.2 °F /  0.1 °C 30.08in /  1018.5hPa NNE 2.0mph /  3.2km/h 4.0mph /  6.4km/h 91% 0.00in /  0mm
19:49 34.5 °F /  1.4 °C 32.1 °F /  0.1 °C 30.08in /  1018.5hPa NNE 2.0mph /  3.2km/h 5.0mph /  8km/h 91% 0.00in /  0mm
19:54 34.4 °F /  1.3 °C 32.0 °F /  0 °C 30.08in /  1018.5hPa NNE 2.0mph /  3.2km/h 5.0mph /  8km/h 91% 0.00in /  0mm
19:59 34.3 °F /  1.3 °C 31.9 °F /  -0.1 °C 30.08in /  1018.5hPa NE 2.0mph /  3.2km/h 3.0mph /  4.8km/h 91% 0.00in /  0mm
20:04 34.3 °F /  1.3 °C 31.9 °F /  -0.1 °C 30.08in /  1018.5hPa ENE 3.0mph /  4.8km/h 4.0mph /  6.4km/h 91% 0.00in /  0mm
20:09 34.3 °F /  1.3 °C 31.9 °F /  -0.1 °C 30.09in /  1018.8hPa NE 2.0mph /  3.2km/h 5.0mph /  8km/h 91% 0.00in /  0mm
20:14 34.2 °F /  1.2 °C 31.8 °F /  -0.1 °C 30.09in /  1018.8hPa NE 2.0mph /  3.2km/h 5.0mph /  8km/h 91% 0.00in /  0mm
20:19 34.2 °F /  1.2 °C 31.8 °F /  -0.1 °C 30.09in /  1018.8hPa NE 2.0mph /  3.2km/h 4.0mph /  6.4km/h 91% 0.00in /  0mm
20:24 34.1 °F /  1.2 °C 31.7 °F /  -0.2 °C 30.09in /  1018.8hPa NNE 2.0mph /  3.2km/h 5.0mph /  8km/h 91% 0.00in /  0mm
20:29 34.1 °F /  1.2 °C 31.7 °F /  -0.2 °C 30.09in /  1018.8hPa NE 2.0mph /  3.2km/h 5.0mph /  8km/h 91% 0.00in /  0mm
20:34 34.0 °F /  1.1 °C 31.6 °F /  -0.2 °C 30.09in /  1018.8hPa NE 1.0mph /  1.6km/h 4.0mph /  6.4km/h 91% 0.00in /  0mm
20:39 34.0 °F /  1.1 °C 31.6 °F /  -0.2 °C 30.10in /  1019.2hPa NE 2.0mph /  3.2km/h 3.0mph /  4.8km/h 91% 0.00in /  0mm
20:44 34.0 °F /  1.1 °C 31.9 °F /  -0.1 °C 30.10in /  1019.2hPa NE 2.0mph /  3.2km/h 5.0mph /  8km/h 92% 0.00in /  0mm
20:49 33.9 °F /  1.1 °C 31.8 °F /  -0.1 °C 30.10in /  1019.2hPa NE 2.0mph /  3.2km/h 5.0mph /  8km/h 92% 0.00in /  0mm
20:54 33.9 °F /  1.1 °C 31.8 °F /  -0.1 °C 30.10in /  1019.2hPa NE 2.0mph /  3.2km/h 4.0mph /  6.4km/h 92% 0.00in /  0mm
20:59 33.9 °F /  1.1 °C 31.6 °F /  -0.2 °C 30.10in /  1019.2hPa NE 3.0mph /  4.8km/h 3.0mph /  4.8km/h 91% 0.00in /  0mm
21:04 33.9 °F /  1.1 °C 31.8 °F /  -0.1 °C 30.11in /  1019.5hPa Calm   4.0mph /  6.4km/h 92% 0.00in /  0mm
21:09 33.9 °F /  1.1 °C 31.8 °F /  -0.1 °C 30.11in /  1019.5hPa NNE 3.0mph /  4.8km/h 3.0mph /  4.8km/h 92% 0.00in /  0mm
21:14 33.9 °F /  1.1 °C 31.8 °F /  -0.1 °C 30.11in /  1019.5hPa NE 1.0mph /  1.6km/h 3.0mph /  4.8km/h 92% 0.00in /  0mm
21:19 33.8 °F /  1 °C 31.7 °F /  -0.2 °C 30.11in /  1019.5hPa NNE 1.0mph /  1.6km/h 3.0mph /  4.8km/h 92% 0.00in /  0mm
21:24 33.9 °F /  1.1 °C 31.8 °F /  -0.1 °C 30.11in /  1019.5hPa NNE 1.0mph /  1.6km/h 3.0mph /  4.8km/h 92% 0.00in /  0mm
21:29 33.8 °F /  1 °C 31.7 °F /  -0.2 °C 30.11in /  1019.5hPa Calm   3.0mph /  4.8km/h 92% 0.00in /  0mm
21:34 33.8 °F /  1 °C 31.7 °F /  -0.2 °C 30.11in /  1019.5hPa NE 2.0mph /  3.2km/h 7.0mph /  11.3km/h 92% 0.00in /  0mm
21:39 33.8 °F /  1 °C 31.7 °F /  -0.2 °C 30.11in /  1019.5hPa NE 2.0mph /  3.2km/h 5.0mph /  8km/h 92% 0.00in /  0mm
21:44 33.8 °F /  1 °C 31.7 °F /  -0.2 °C 30.11in /  1019.5hPa Calm   4.0mph /  6.4km/h 92% 0.00in /  0mm
21:49 33.8 °F /  1 °C 31.7 °F /  -0.2 °C 30.12in /  1019.9hPa NE 2.0mph /  3.2km/h 4.0mph /  6.4km/h 92% 0.00in /  0mm
21:54 33.8 °F /  1 °C 31.7 °F /  -0.2 °C 30.12in /  1019.9hPa NE 2.0mph /  3.2km/h 4.0mph /  6.4km/h 92% 0.00in /  0mm
21:59 33.8 °F /  1 °C 31.7 °F /  -0.2 °C 30.12in /  1019.9hPa NE 2.0mph /  3.2km/h 4.0mph /  6.4km/h 92% 0.00in /  0mm
22:04 33.8 °F /  1 °C 31.7 °F /  -0.2 °C 30.12in /  1019.9hPa NE 2.0mph /  3.2km/h 4.0mph /  6.4km/h 92% 0.00in /  0mm
22:09 33.8 °F /  1 °C 31.7 °F /  -0.2 °C 30.12in /  1019.9hPa Calm   2.0mph /  3.2km/h 92% 0.00in /  0mm
22:14 33.8 °F /  1 °C 31.7 °F /  -0.2 °C 30.12in /  1019.9hPa NE 1.0mph /  1.6km/h 2.0mph /  3.2km/h 92% 0.00in /  0mm
22:19 33.8 °F /  1 °C 31.7 °F /  -0.2 °C 30.12in /  1019.9hPa NE 1.0mph /  1.6km/h 2.0mph /  3.2km/h 92% 0.00in /  0mm
22:24 33.8 °F /  1 °C 31.7 °F /  -0.2 °C 30.12in /  1019.9hPa NNE 1.0mph /  1.6km/h 3.0mph /  4.8km/h 92% 0.00in /  0mm
22:29 33.8 °F /  1 °C 31.7 °F /  -0.2 °C 30.12in /  1019.9hPa Calm   2.0mph /  3.2km/h 92% 0.00in /  0mm
22:34 33.8 °F /  1 °C 31.7 °F /  -0.2 °C 30.13in /  1020.2hPa NNE 1.0mph /  1.6km/h 3.0mph /  4.8km/h 92% 0.00in /  0mm
22:39 33.8 °F /  1 °C 31.7 °F /  -0.2 °C 30.13in /  1020.2hPa Calm   3.0mph /  4.8km/h 92% 0.00in /  0mm
22:44 33.8 °F /  1 °C 31.7 °F /  -0.2 °C 30.13in /  1020.2hPa NNE 2.0mph /  3.2km/h 2.0mph /  3.2km/h 92% 0.00in /  0mm
22:49 33.9 °F /  1.1 °C 31.8 °F /  -0.1 °C 30.13in /  1020.2hPa NNE 1.0mph /  1.6km/h 2.0mph /  3.2km/h 92% 0.00in /  0mm
22:54 33.8 °F /  1 °C 31.7 °F /  -0.2 °C 30.13in /  1020.2hPa NNE 2.0mph /  3.2km/h 5.0mph /  8km/h 92% 0.00in /  0mm
22:59 33.8 °F /  1 °C 31.7 °F /  -0.2 °C 30.13in /  1020.2hPa NE 2.0mph /  3.2km/h 5.0mph /  8km/h 92% 0.00in /  0mm
23:04 33.8 °F /  1 °C 31.7 °F /  -0.2 °C 30.13in /  1020.2hPa NE 2.0mph /  3.2km/h 4.0mph /  6.4km/h 92% 0.00in /  0mm
23:09 33.7 °F /  0.9 °C 31.6 °F /  -0.2 °C 30.13in /  1020.2hPa NNE 2.0mph /  3.2km/h 4.0mph /  6.4km/h 92% 0.00in /  0mm
23:14 33.7 °F /  0.9 °C 31.6 °F /  -0.2 °C 30.13in /  1020.2hPa Calm   3.0mph /  4.8km/h 92% 0.00in /  0mm
23:19 33.7 °F /  0.9 °C 31.6 °F /  -0.2 °C 30.13in /  1020.2hPa NE 1.0mph /  1.6km/h 4.0mph /  6.4km/h 92% 0.00in /  0mm
23:24 33.7 °F /  0.9 °C 31.6 °F /  -0.2 °C 30.13in /  1020.2hPa NNE 2.0mph /  3.2km/h 4.0mph /  6.4km/h 92% 0.00in /  0mm
23:29 33.6 °F /  0.9 °C 31.5 °F /  -0.3 °C 30.13in /  1020.2hPa NNE 2.0mph /  3.2km/h 2.0mph /  3.2km/h 92% 0.00in /  0mm
23:34 33.6 °F /  0.9 °C 31.5 °F /  -0.3 °C 30.14in /  1020.5hPa North 2.0mph /  3.2km/h 3.0mph /  4.8km/h 92% 0.00in /  0mm
23:39 33.6 °F /  0.9 °C 31.5 °F /  -0.3 °C 30.14in /  1020.5hPa North 1.0mph /  1.6km/h 3.0mph /  4.8km/h 92% 0.00in /  0mm
23:44 33.6 °F /  0.9 °C 31.5 °F /  -0.3 °C 30.14in /  1020.5hPa North 2.0mph /  3.2km/h 2.0mph /  3.2km/h 92% 0.00in /  0mm
23:49 33.5 °F /  0.8 °C 31.4 °F /  -0.3 °C 30.15in /  1020.9hPa North 1.0mph /  1.6km/h 3.0mph /  4.8km/h 92% 0.00in /  0mm
23:54 33.5 °F /  0.8 °C 31.4 °F /  -0.3 °C 30.15in /  1020.9hPa North 1.0mph /  1.6km/h 3.0mph /  4.8km/h 92% 0.00in /  0mm
23:59 33.5 °F /  0.8 °C 31.4 °F /  -0.3 °C 30.15in /  1020.9hPa North 1.0mph /  1.6km/h 3.0mph /  4.8km/h 92% 0.00in /  0mm
Buffalo, New York, USA
Compliments of Weather Underground - 2.5 mb